createdAt,value
2017-12-13T00:02:14.563Z,25.37
2017-12-13T00:04:42.107Z,23.90
2017-12-13T00:07:09.822Z,24.50
2017-12-13T00:09:38.165Z,25.10
2017-12-13T00:12:05.733Z,20.70
2017-12-13T00:14:33.322Z,27.37
2017-12-13T00:17:01.798Z,24.13
2017-12-13T00:19:30.123Z,25.87
2017-12-13T00:21:57.700Z,23.00
2017-12-13T00:24:25.293Z,20.67
2017-12-13T00:26:53.717Z,26.80
2017-12-13T00:29:21.305Z,22.33
2017-12-13T00:31:48.882Z,24.73
2017-12-13T00:34:16.524Z,23.00
2017-12-13T00:36:44.081Z,25.03
2017-12-13T00:39:11.655Z,20.60
2017-12-13T00:41:39.209Z,21.37
2017-12-13T00:44:06.801Z,20.37
2017-12-13T00:46:34.406Z,18.60
2017-12-13T00:49:02.162Z,18.17
2017-12-13T00:51:29.715Z,14.13
2017-12-13T00:53:57.285Z,17.57
2017-12-13T00:56:24.882Z,20.13
2017-12-13T00:58:52.454Z,20.83
2017-12-13T01:01:20.041Z,18.50
2017-12-13T01:03:48.379Z,19.03
2017-12-13T01:06:15.953Z,20.47
2017-12-13T01:08:43.514Z,18.63
2017-12-13T01:11:11.073Z,19.40
2017-12-13T01:13:38.637Z,17.10
2017-12-13T01:16:06.214Z,18.17
2017-12-13T01:18:33.794Z,14.27
2017-12-13T01:21:02.153Z,18.37
2017-12-13T01:23:29.725Z,21.00
2017-12-13T01:25:58.065Z,21.17
2017-12-13T01:28:25.637Z,18.73
2017-12-13T01:30:53.226Z,16.50
2017-12-13T01:33:21.585Z,15.70
2017-12-13T01:35:59.043Z,17.37
2017-12-13T01:38:26.598Z,17.70
2017-12-13T01:40:54.292Z,21.83
2017-12-13T01:43:21.889Z,19.90
2017-12-13T01:45:50.214Z,17.10
2017-12-13T01:48:17.773Z,20.17
2017-12-13T01:50:45.366Z,17.97
2017-12-13T01:53:12.919Z,15.80
2017-12-13T01:55:40.489Z,21.33
2017-12-13T01:58:08.058Z,22.50
2017-12-13T02:00:36.403Z,18.20
2017-12-13T02:03:03.941Z,19.70
2017-12-13T02:05:31.533Z,17.57
2017-12-13T02:07:59.101Z,22.00
2017-12-13T02:10:26.674Z,17.23
2017-12-13T02:12:54.222Z,18.10
2017-12-13T02:15:21.934Z,19.33
2017-12-13T02:17:49.499Z,21.63
2017-12-13T02:20:17.071Z,22.70
2017-12-13T02:22:44.657Z,20.80
2017-12-13T02:25:12.202Z,17.43
2017-12-13T02:27:39.833Z,19.53
2017-12-13T02:30:07.397Z,18.27
2017-12-13T02:32:34.975Z,21.43
2017-12-13T02:35:02.557Z,16.97
2017-12-13T02:37:30.261Z,18.10
2017-12-13T02:40:10.503Z,19.03
2017-12-13T02:42:38.073Z,16.60
2017-12-13T02:45:06.411Z,15.50
2017-12-13T02:47:33.962Z,11.83
2017-12-13T02:50:01.546Z,15.30
2017-12-13T02:52:29.197Z,21.43
2017-12-13T02:54:56.782Z,14.77
2017-12-13T02:57:24.325Z,14.60
2017-12-13T02:59:51.893Z,16.53
2017-12-13T03:02:19.442Z,12.90
2017-12-13T03:04:47.025Z,10.53
2017-12-13T03:07:14.574Z,13.60
2017-12-13T03:09:42.138Z,20.33
2017-12-13T03:12:09.698Z,16.00
2017-12-13T03:14:37.274Z,12.03
2017-12-13T03:17:05.615Z,13.30
2017-12-13T03:19:33.202Z,16.50
2017-12-13T03:22:00.770Z,12.50
2017-12-13T03:24:28.326Z,12.23
2017-12-13T03:26:55.901Z,9.97
2017-12-13T03:29:24.357Z,12.57
2017-12-13T03:31:51.926Z,16.97
2017-12-13T03:34:19.497Z,11.90
2017-12-13T03:36:47.821Z,13.50
2017-12-13T03:39:15.434Z,10.00
2017-12-13T03:41:43.026Z,12.00
2017-12-13T03:44:10.595Z,12.33
2017-12-13T03:46:38.181Z,11.50
2017-12-13T03:49:05.802Z,9.40
2017-12-13T03:51:33.373Z,16.23
2017-12-13T03:54:00.939Z,13.17
2017-12-13T03:56:28.505Z,13.83
2017-12-13T03:58:56.082Z,10.13
2017-12-13T04:01:23.666Z,20.80
2017-12-13T04:03:51.236Z,12.53
2017-12-13T04:06:18.778Z,14.67
2017-12-13T04:08:46.458Z,12.97
2017-12-13T04:11:14.010Z,16.00
2017-12-13T04:13:41.599Z,13.10
2017-12-13T04:16:09.974Z,12.53
2017-12-13T04:18:37.525Z,18.50
2017-12-13T04:21:05.075Z,12.47
2017-12-13T04:23:32.636Z,9.10
2017-12-13T04:26:00.317Z,12.53
2017-12-13T04:28:28.642Z,16.10
2017-12-13T04:30:56.221Z,18.37
2017-12-13T04:33:24.553Z,11.13
2017-12-13T04:35:52.885Z,12.23
2017-12-13T04:38:20.566Z,14.10
2017-12-13T04:40:48.157Z,11.30
2017-12-13T04:43:15.737Z,11.37
2017-12-13T04:45:43.313Z,13.63
2017-12-13T04:48:10.893Z,12.30
2017-12-13T04:50:38.442Z,9.07
2017-12-13T04:53:06.778Z,12.10
2017-12-13T04:55:34.423Z,12.00
2017-12-13T04:58:02.759Z,11.67
2017-12-13T05:00:30.317Z,11.97
2017-12-13T05:02:57.902Z,11.30
2017-12-13T05:05:25.484Z,9.10
2017-12-13T05:07:53.067Z,11.13
2017-12-13T05:10:20.629Z,8.63
2017-12-13T05:12:48.249Z,8.40
2017-12-13T05:15:15.805Z,9.80
2017-12-13T05:17:44.186Z,9.07
2017-12-13T05:20:11.758Z,9.63
2017-12-13T05:22:39.345Z,15.80
2017-12-13T05:25:08.055Z,11.73
2017-12-13T05:27:35.621Z,8.43
2017-12-13T05:30:03.197Z,10.40
2017-12-13T05:32:30.842Z,10.03
2017-12-13T05:34:58.536Z,9.80
2017-12-13T05:37:26.101Z,10.87
2017-12-13T05:39:54.552Z,12.93
2017-12-13T05:42:22.121Z,10.60
2017-12-13T05:44:49.767Z,9.60
2017-12-13T05:47:17.318Z,12.70
2017-12-13T05:49:44.888Z,9.30
2017-12-13T05:52:12.468Z,9.70
2017-12-13T05:54:40.072Z,10.80
2017-12-13T05:57:08.391Z,9.17
2017-12-13T05:59:36.706Z,9.30
2017-12-13T06:02:04.336Z,11.40
2017-12-13T06:04:31.889Z,10.97
2017-12-13T06:06:59.493Z,12.50
2017-12-13T06:09:27.095Z,9.60
2017-12-13T06:11:54.681Z,12.10
2017-12-13T06:14:22.262Z,8.70
2017-12-13T06:16:49.919Z,8.23
2017-12-13T06:19:17.470Z,8.77
2017-12-13T06:21:45.055Z,11.57
2017-12-13T06:24:12.642Z,9.80
2017-12-13T06:26:40.989Z,7.83
2017-12-13T06:29:08.553Z,14.23
2017-12-13T06:31:36.130Z,8.57
2017-12-13T06:34:03.674Z,9.33
2017-12-13T06:36:31.245Z,9.17
2017-12-13T06:38:58.790Z,10.00
2017-12-13T06:41:26.506Z,11.70
2017-12-13T06:43:54.818Z,8.03
2017-12-13T06:46:22.402Z,9.50
2017-12-13T06:48:49.960Z,14.00
2017-12-13T06:51:17.517Z,9.93
2017-12-13T06:53:45.116Z,14.73
2017-12-13T06:56:13.433Z,8.50
2017-12-13T06:58:41.042Z,15.67
2017-12-13T07:01:09.397Z,9.13
2017-12-13T07:03:36.956Z,11.50
2017-12-13T07:06:04.567Z,15.17
2017-12-13T07:08:32.156Z,12.07
2017-12-13T07:10:59.713Z,10.20
2017-12-13T07:13:27.323Z,10.95
2017-12-13T07:15:54.874Z,7.83
2017-12-13T07:18:22.462Z,13.30
2017-12-13T07:20:50.822Z,22.50
2017-12-13T07:23:18.389Z,9.43
2017-12-13T07:25:46.728Z,6.13
2017-12-13T07:28:14.336Z,13.30
2017-12-13T07:30:42.667Z,9.77
2017-12-13T07:33:10.633Z,9.83
2017-12-13T07:35:38.194Z,9.47
2017-12-13T07:38:05.758Z,14.33
2017-12-13T07:40:33.349Z,15.03
2017-12-13T07:43:00.933Z,9.17
2017-12-13T07:45:29.526Z,7.97
2017-12-13T07:47:59.585Z,5.63
2017-12-13T07:50:27.209Z,7.27
2017-12-13T07:52:54.765Z,6.23
2017-12-13T07:55:23.077Z,11.97
2017-12-13T07:57:50.661Z,8.27
2017-12-13T08:00:18.221Z,12.07
2017-12-13T08:02:45.897Z,8.63
2017-12-13T08:05:13.459Z,6.60
2017-12-13T08:07:41.030Z,7.33
2017-12-13T08:10:09.370Z,7.10
2017-12-13T08:12:36.949Z,7.17
2017-12-13T08:15:04.511Z,9.30
2017-12-13T08:17:32.114Z,9.83
2017-12-13T08:20:00.442Z,16.87
2017-12-13T08:22:28.002Z,13.27
2017-12-13T08:24:55.578Z,6.83
2017-12-13T08:27:23.165Z,6.20
2017-12-13T08:29:51.493Z,14.23
2017-12-13T08:32:19.061Z,7.83
2017-12-13T08:34:46.618Z,4.67
2017-12-13T08:37:14.190Z,5.37
2017-12-13T08:39:41.766Z,6.97
2017-12-13T08:42:09.323Z,6.33
2017-12-13T08:44:36.982Z,21.70
2017-12-13T08:47:04.549Z,3.80
2017-12-13T08:49:32.127Z,7.40
2017-12-13T08:52:00.445Z,8.30
2017-12-13T08:54:28.009Z,6.07
2017-12-13T08:56:55.578Z,5.80
2017-12-13T08:59:23.161Z,5.33
2017-12-13T09:01:50.745Z,4.57
2017-12-13T09:04:19.087Z,9.00
2017-12-13T09:06:46.678Z,6.53
2017-12-13T09:09:15.017Z,3.60
2017-12-13T09:11:43.432Z,5.07
2017-12-13T09:14:11.774Z,7.43
2017-12-13T09:16:39.341Z,8.30
2017-12-13T09:19:06.945Z,11.10
2017-12-13T09:21:35.306Z,7.20
2017-12-13T09:24:02.873Z,5.53
2017-12-13T09:26:30.557Z,5.67
2017-12-13T09:28:58.999Z,4.07
2017-12-13T09:31:26.651Z,4.90
2017-12-13T09:33:54.221Z,12.53
2017-12-13T09:36:21.800Z,6.27
2017-12-13T09:38:49.378Z,5.57
2017-12-13T09:41:17.772Z,6.77
2017-12-13T09:43:45.387Z,7.03
2017-12-13T09:46:12.968Z,8.77
2017-12-13T09:48:40.634Z,4.63
2017-12-13T09:51:08.957Z,5.80
2017-12-13T09:53:37.384Z,4.63
2017-12-13T09:56:04.933Z,5.20
2017-12-13T09:58:32.541Z,4.03
2017-12-13T10:01:00.152Z,5.80
2017-12-13T10:03:40.765Z,4.20
2017-12-13T10:06:08.417Z,8.27
2017-12-13T10:08:36.773Z,6.70
2017-12-13T10:11:04.345Z,2.63
2017-12-13T10:13:31.983Z,4.67
2017-12-13T10:15:59.561Z,3.40
2017-12-13T10:18:27.167Z,5.57
2017-12-13T10:20:54.728Z,8.77
2017-12-13T10:23:23.422Z,5.60
2017-12-13T10:25:51.012Z,4.27
2017-12-13T10:28:18.658Z,3.73
2017-12-13T10:30:46.239Z,3.20
2017-12-13T10:33:13.808Z,3.07
2017-12-13T10:35:41.386Z,4.70
2017-12-13T10:38:09.765Z,3.07
2017-12-13T10:43:12.115Z,3.50
2017-12-13T10:45:39.697Z,2.63
2017-12-13T10:48:07.292Z,4.67
2017-12-13T10:50:35.629Z,2.53
2017-12-13T10:53:03.205Z,2.63
2017-12-13T10:55:32.514Z,3.20
2017-12-13T10:58:00.846Z,2.23
2017-12-13T11:00:28.444Z,3.23
2017-12-13T11:02:56.020Z,3.77
2017-12-13T11:05:24.522Z,3.60
2017-12-13T11:07:52.858Z,2.23
2017-12-13T11:10:20.417Z,2.07
2017-12-13T11:12:48.018Z,7.50
2017-12-13T11:15:15.598Z,1.73
2017-12-13T11:17:43.151Z,2.83
2017-12-13T11:20:10.719Z,3.07
2017-12-13T11:22:38.978Z,1.93
2017-12-13T11:25:06.575Z,2.27
2017-12-13T11:27:34.145Z,2.03
2017-12-13T11:30:01.734Z,2.10
2017-12-13T11:32:29.323Z,2.23
2017-12-13T11:34:56.885Z,1.80
2017-12-13T11:37:24.577Z,1.60
2017-12-13T11:39:52.159Z,1.70
2017-12-13T11:42:19.718Z,1.40
2017-12-13T11:44:48.054Z,1.67
2017-12-13T11:47:15.610Z,1.30
2017-12-13T11:49:43.197Z,1.90
2017-12-13T11:52:10.765Z,1.70
2017-12-13T11:54:39.095Z,1.83
2017-12-13T11:57:07.449Z,2.20
2017-12-13T11:59:35.003Z,2.03
2017-12-13T12:02:02.595Z,2.00
2017-12-13T12:04:30.935Z,1.60
2017-12-13T12:06:58.753Z,3.53
2017-12-13T12:09:27.097Z,4.93
2017-12-13T12:11:54.686Z,4.63
2017-12-13T12:14:23.169Z,1.70
2017-12-13T12:16:51.603Z,1.80
2017-12-13T12:19:19.179Z,1.90
2017-12-13T12:21:46.770Z,3.90
2017-12-13T12:24:15.838Z,6.10
2017-12-13T12:26:43.422Z,2.63
2017-12-13T12:29:11.920Z,3.93
2017-12-13T12:31:39.549Z,4.35
2017-12-13T12:34:07.491Z,1.80
2017-12-13T12:36:35.034Z,2.47
2017-12-13T12:39:02.592Z,2.70
2017-12-13T12:41:30.229Z,2.50
2017-12-13T12:43:58.543Z,3.47
2017-12-13T12:46:26.225Z,2.47
2017-12-13T12:48:53.835Z,1.83
2017-12-13T12:51:21.544Z,2.80
2017-12-13T12:53:49.118Z,2.30
2017-12-13T12:56:16.718Z,2.93
2017-12-13T12:58:44.289Z,2.90
2017-12-13T13:01:11.902Z,2.30
2017-12-13T13:03:39.483Z,3.13
2017-12-13T13:06:07.820Z,2.37
2017-12-13T13:08:35.400Z,2.10
2017-12-13T13:11:03.900Z,3.23
2017-12-13T13:13:31.474Z,2.70
2017-12-13T13:15:59.976Z,2.43
2017-12-13T13:18:28.438Z,2.50
2017-12-13T13:20:56.783Z,2.30
2017-12-13T13:23:24.538Z,2.53
2017-12-13T13:25:52.095Z,3.07
2017-12-13T13:28:19.670Z,3.23
2017-12-13T13:30:47.542Z,2.57
2017-12-13T13:33:16.468Z,2.20
2017-12-13T13:35:44.855Z,3.53
2017-12-13T13:38:13.231Z,3.17
2017-12-13T13:40:40.836Z,2.37
2017-12-13T13:43:08.443Z,2.17
2017-12-13T13:45:36.868Z,2.60
2017-12-13T13:48:04.424Z,5.10
2017-12-13T13:50:32.371Z,4.20
2017-12-13T13:53:00.729Z,4.40
2017-12-13T13:55:29.129Z,2.10
2017-12-13T13:57:56.728Z,6.60
2017-12-13T14:00:24.307Z,2.40
2017-12-13T14:02:52.204Z,2.23
2017-12-13T14:05:20.550Z,1.60
2017-12-13T14:07:48.139Z,1.60
2017-12-13T14:10:15.763Z,4.03
2017-12-13T14:12:43.333Z,2.97
2017-12-13T14:15:10.928Z,2.47
2017-12-13T14:17:39.319Z,2.03
2017-12-13T14:20:07.631Z,3.17
2017-12-13T14:22:35.231Z,6.60
2017-12-13T14:25:02.811Z,2.27
2017-12-13T14:27:31.782Z,2.00
2017-12-13T14:30:02.344Z,2.47
2017-12-13T14:32:29.944Z,2.17
2017-12-13T14:34:57.573Z,9.83
2017-12-13T14:37:25.166Z,1.40
2017-12-13T14:39:53.567Z,2.17
2017-12-13T14:42:21.159Z,3.30
2017-12-13T14:44:49.541Z,1.00
2017-12-13T14:47:17.897Z,1.17
2017-12-13T14:49:53.506Z,1.33
2017-12-13T14:52:21.178Z,1.87
2017-12-13T14:54:48.769Z,1.27
2017-12-13T14:57:16.399Z,2.00
2017-12-13T14:59:44.114Z,1.00
2017-12-13T15:02:12.783Z,1.30
2017-12-13T15:04:40.396Z,2.33
2017-12-13T15:07:07.961Z,1.30
2017-12-13T15:09:35.554Z,1.53
2017-12-13T15:12:03.140Z,1.50
2017-12-13T15:14:30.718Z,1.87
2017-12-13T15:16:59.082Z,1.80
2017-12-13T15:19:26.675Z,1.30
2017-12-13T15:21:54.273Z,1.70
2017-12-13T15:24:21.853Z,1.73
2017-12-13T15:26:49.452Z,4.60
2017-12-13T15:29:17.055Z,1.77
2017-12-13T15:31:44.630Z,1.87
2017-12-13T15:34:12.438Z,2.30
2017-12-13T15:36:40.188Z,2.70
2017-12-13T15:39:08.513Z,4.10
2017-12-13T15:41:36.098Z,2.43
2017-12-13T15:44:04.041Z,3.03
2017-12-13T15:46:31.632Z,3.17
2017-12-13T15:48:59.258Z,2.60
2017-12-13T15:51:26.854Z,2.47
2017-12-13T15:53:54.444Z,5.03
2017-12-13T15:56:22.782Z,2.30
2017-12-13T15:58:50.393Z,2.30
2017-12-13T16:01:17.967Z,2.17
2017-12-13T16:03:46.325Z,7.40
2017-12-13T16:06:14.644Z,2.60
2017-12-13T16:08:42.250Z,4.40
2017-12-13T16:11:09.829Z,3.40
2017-12-13T16:13:38.194Z,3.90
2017-12-13T16:16:06.571Z,3.30
2017-12-13T16:18:34.398Z,6.27
2017-12-13T16:21:02.000Z,7.40
2017-12-13T16:23:29.585Z,3.30
2017-12-13T16:25:58.017Z,3.00
2017-12-13T16:28:25.578Z,4.00
2017-12-13T16:30:53.153Z,2.70
2017-12-13T16:33:20.790Z,8.97
2017-12-13T16:35:48.371Z,2.37
2017-12-13T16:38:15.961Z,3.03
2017-12-13T16:40:44.834Z,4.37
2017-12-13T16:43:12.440Z,3.17
2017-12-13T16:48:14.185Z,4.37
2017-12-13T16:50:42.519Z,4.00
2017-12-13T16:53:10.133Z,4.47
2017-12-13T16:55:37.698Z,3.70
2017-12-13T16:58:06.078Z,5.27
2017-12-13T17:03:08.442Z,3.20
2017-12-13T17:05:36.030Z,3.40
2017-12-13T17:08:03.710Z,5.47
2017-12-13T17:10:31.296Z,2.50
2017-12-13T17:12:58.896Z,3.97
2017-12-13T17:15:26.804Z,6.40
2017-12-13T17:17:54.433Z,3.30
2017-12-13T17:20:22.777Z,3.77
2017-12-13T17:22:51.434Z,2.23
2017-12-13T17:25:18.995Z,4.60
2017-12-13T17:27:46.559Z,5.30
2017-12-13T17:30:14.137Z,3.53
2017-12-13T17:32:42.667Z,3.17
2017-12-13T17:35:11.033Z,4.53
2017-12-13T17:37:38.681Z,4.47
2017-12-13T17:40:06.340Z,6.30
2017-12-13T17:42:33.904Z,4.00
2017-12-13T17:45:01.558Z,3.60
2017-12-13T17:47:29.284Z,2.73
2017-12-13T17:49:56.890Z,3.27
2017-12-13T17:52:25.506Z,3.30
2017-12-13T17:54:53.855Z,3.30
2017-12-13T17:57:21.470Z,2.50
2017-12-13T17:59:49.101Z,3.47
2017-12-13T18:02:17.441Z,2.40
2017-12-13T18:04:46.852Z,4.73
2017-12-13T18:07:14.992Z,2.13
2017-12-13T18:09:49.044Z,1.97
2017-12-13T18:12:17.732Z,2.37
2017-12-13T18:14:47.866Z,2.37
2017-12-13T18:17:16.800Z,2.00
2017-12-13T18:19:44.387Z,1.70
2017-12-13T18:22:12.010Z,1.70
2017-12-13T18:24:39.543Z,1.90
2017-12-13T18:27:07.111Z,2.17
2017-12-13T18:29:37.392Z,1.97
2017-12-13T18:32:05.816Z,1.97
2017-12-13T18:34:33.401Z,1.80
2017-12-13T18:37:01.735Z,2.27
2017-12-13T18:39:29.318Z,3.73
2017-12-13T18:41:57.667Z,1.87
2017-12-13T18:44:25.242Z,2.87
2017-12-13T18:46:53.161Z,2.10
2017-12-13T18:49:20.813Z,2.20
2017-12-13T18:51:48.804Z,1.50
2017-12-13T18:54:16.528Z,2.33
2017-12-13T18:56:44.849Z,1.63
2017-12-13T18:59:13.194Z,3.03
2017-12-13T19:01:41.553Z,2.07
2017-12-13T19:04:09.162Z,2.40
2017-12-13T19:06:36.783Z,2.00
2017-12-13T19:09:05.243Z,2.57
2017-12-13T19:11:32.850Z,2.27
2017-12-13T19:14:00.470Z,2.13
2017-12-13T19:16:28.864Z,2.20
2017-12-13T19:18:57.197Z,1.90
2017-12-13T19:21:24.911Z,2.60
2017-12-13T19:23:52.588Z,2.50
2017-12-13T19:26:22.225Z,3.70
2017-12-13T19:28:49.946Z,2.23
2017-12-13T19:31:18.350Z,2.33
2017-12-13T19:33:46.697Z,2.23
2017-12-13T19:36:14.289Z,1.90
2017-12-13T19:38:41.898Z,1.90
2017-12-13T19:41:09.520Z,1.73
2017-12-13T19:43:37.296Z,1.73
2017-12-13T19:46:05.827Z,1.80
2017-12-13T19:48:33.431Z,1.87
2017-12-13T19:51:02.029Z,1.70
2017-12-13T19:53:32.610Z,1.60
2017-12-13T19:56:00.194Z,1.53
2017-12-13T19:58:27.783Z,1.70
2017-12-13T20:00:55.994Z,1.77
2017-12-13T20:03:24.299Z,1.53
2017-12-13T20:05:51.963Z,1.83
2017-12-13T20:08:20.344Z,1.60
2017-12-13T20:10:48.759Z,1.83
2017-12-13T20:13:16.342Z,2.30
2017-12-13T20:15:43.991Z,2.17
2017-12-13T20:18:11.594Z,2.10
2017-12-13T20:20:39.180Z,2.77
2017-12-13T20:23:06.869Z,2.27
2017-12-13T20:25:34.465Z,2.03
2017-12-13T20:28:02.099Z,2.57
2017-12-13T20:30:29.758Z,2.47
2017-12-13T20:32:57.338Z,2.90
2017-12-13T20:35:24.941Z,3.50
2017-12-13T20:37:52.585Z,2.33
2017-12-13T20:40:20.190Z,2.60
2017-12-13T20:42:47.876Z,1.47
2017-12-13T20:45:15.453Z,2.20
2017-12-13T20:47:43.055Z,3.90
2017-12-13T20:50:11.448Z,1.63
2017-12-13T20:52:39.058Z,2.67
2017-12-13T20:55:06.680Z,1.97
2017-12-13T20:57:34.296Z,1.43
2017-12-13T21:00:02.661Z,2.10
2017-12-13T21:02:30.235Z,1.70
2017-12-13T21:04:57.869Z,1.80
2017-12-13T21:07:25.600Z,1.50
2017-12-13T21:09:54.260Z,1.73
2017-12-13T21:12:21.883Z,3.90
2017-12-13T21:14:49.498Z,1.60
2017-12-13T21:17:17.871Z,2.20
2017-12-13T21:19:45.492Z,1.50
2017-12-13T21:22:13.058Z,1.67
2017-12-13T21:24:40.737Z,2.73
2017-12-13T21:27:08.357Z,1.50
2017-12-13T21:29:36.421Z,1.27
2017-12-13T21:32:04.081Z,1.73
2017-12-13T21:34:31.699Z,1.50
2017-12-13T21:36:59.441Z,1.30
2017-12-13T21:39:27.022Z,2.10
2017-12-13T21:41:54.577Z,1.90
2017-12-13T21:44:22.257Z,1.70
2017-12-13T21:46:49.918Z,2.10
2017-12-13T21:49:18.290Z,1.70
2017-12-13T21:51:45.901Z,4.00
2017-12-13T21:54:13.451Z,3.00
2017-12-13T21:56:41.094Z,7.13
2017-12-13T21:59:10.698Z,1.83
2017-12-13T22:01:39.030Z,1.53
2017-12-13T22:04:06.676Z,1.70
2017-12-13T22:06:35.152Z,1.70
2017-12-13T22:09:02.826Z,2.10
2017-12-13T22:11:30.401Z,1.40
2017-12-13T22:13:58.171Z,0.80
2017-12-13T22:16:25.775Z,0.90
2017-12-13T22:18:54.128Z,1.07
2017-12-13T22:21:22.530Z,1.70
2017-12-13T22:23:50.912Z,0.90
2017-12-13T22:26:19.283Z,1.37
2017-12-13T22:28:46.904Z,1.20
2017-12-13T22:31:15.249Z,1.17
2017-12-13T22:33:43.729Z,1.00
2017-12-13T22:36:11.387Z,0.87
2017-12-13T22:38:39.098Z,0.70
2017-12-13T22:41:06.774Z,0.90
2017-12-13T22:43:34.369Z,0.83
2017-12-13T22:46:02.862Z,1.33
2017-12-13T22:48:30.523Z,1.27
2017-12-13T22:50:58.509Z,1.00
2017-12-13T22:53:26.139Z,0.90
2017-12-13T22:55:54.465Z,1.10
2017-12-13T22:58:22.082Z,1.30
2017-12-13T23:00:51.259Z,2.80
2017-12-13T23:03:18.866Z,2.07
2017-12-13T23:05:47.288Z,3.73
2017-12-13T23:08:14.934Z,3.47
2017-12-13T23:10:42.486Z,1.77
2017-12-13T23:13:10.086Z,4.03
2017-12-13T23:15:37.688Z,2.20
2017-12-13T23:18:05.303Z,6.00
2017-12-13T23:20:33.634Z,3.70
2017-12-13T23:23:01.236Z,3.17
2017-12-13T23:25:28.791Z,4.13
2017-12-13T23:27:56.349Z,5.27
2017-12-13T23:30:23.927Z,8.57
2017-12-13T23:32:51.468Z,4.30
2017-12-13T23:35:19.095Z,5.40
2017-12-13T23:37:46.661Z,4.50
2017-12-13T23:40:14.467Z,8.17
2017-12-13T23:42:42.076Z,9.33
2017-12-13T23:45:10.406Z,4.60
2017-12-13T23:47:38.881Z,7.60
2017-12-13T23:50:06.469Z,27.83
2017-12-13T23:52:34.137Z,8.93
2017-12-13T23:55:03.153Z,4.43
2017-12-13T23:57:31.505Z,16.13
2017-12-13T23:59:59.095Z,7.87
